sensor_id;sensor_type;location;lat;lon;timestamp;pressure;altitude;pressure_sealevel;temperature;humidity
37200;BME280;23096;50.892;16.746;2022-09-30T00:01:23;98526.09;;;7.92;72.30
37200;BME280;23096;50.892;16.746;2022-09-30T00:03:55;98525.26;;;7.92;72.27
37200;BME280;23096;50.892;16.746;2022-09-30T00:06:18;98531.80;;;7.89;72.24
37200;BME280;23096;50.892;16.746;2022-09-30T00:08:45;98529.31;;;7.85;72.30
37200;BME280;23096;50.892;16.746;2022-09-30T00:11:17;98531.84;;;7.87;72.44
37200;BME280;23096;50.892;16.746;2022-09-30T00:13:44;98531.38;;;7.87;72.51
37200;BME280;23096;50.892;16.746;2022-09-30T00:16:12;98537.25;;;7.91;72.52
37200;BME280;23096;50.892;16.746;2022-09-30T00:18:38;98542.30;;;7.94;72.62
37200;BME280;23096;50.892;16.746;2022-09-30T00:21:05;98540.47;;;7.98;72.62
37200;BME280;23096;50.892;16.746;2022-09-30T00:23:33;98540.89;;;7.97;72.47
37200;BME280;23096;50.892;16.746;2022-09-30T00:26:01;98548.70;;;7.94;72.45
37200;BME280;23096;50.892;16.746;2022-09-30T00:28:29;98551.65;;;7.95;72.58
37200;BME280;23096;50.892;16.746;2022-09-30T00:31:03;98555.86;;;7.98;72.64
37200;BME280;23096;50.892;16.746;2022-09-30T00:33:26;98556.06;;;8.05;72.80
37200;BME280;23096;50.892;16.746;2022-09-30T00:35:52;98556.25;;;8.12;72.83
37200;BME280;23096;50.892;16.746;2022-09-30T00:38:18;98555.70;;;8.16;72.84
37200;BME280;23096;50.892;16.746;2022-09-30T00:40:44;98560.67;;;8.20;72.82
37200;BME280;23096;50.892;16.746;2022-09-30T00:43:16;98559.11;;;8.16;72.62
37200;BME280;23096;50.892;16.746;2022-09-30T00:45:48;98558.86;;;8.11;72.54
37200;BME280;23096;50.892;16.746;2022-09-30T00:48:16;98561.93;;;8.09;72.69
37200;BME280;23096;50.892;16.746;2022-09-30T00:50:46;98563.13;;;8.10;72.85
37200;BME280;23096;50.892;16.746;2022-09-30T00:53:18;98564.56;;;8.19;72.99
37200;BME280;23096;50.892;16.746;2022-09-30T00:58:34;98572.41;;;8.28;72.96
37200;BME280;23096;50.892;16.746;2022-09-30T01:00:59;98570.99;;;8.32;72.95
37200;BME280;23096;50.892;16.746;2022-09-30T01:03:28;98563.62;;;8.35;73.00
37200;BME280;23096;50.892;16.746;2022-09-30T01:05:57;98558.77;;;8.39;73.04
37200;BME280;23096;50.892;16.746;2022-09-30T01:08:23;98550.64;;;8.39;72.97
37200;BME280;23096;50.892;16.746;2022-09-30T01:10:53;98550.73;;;8.36;72.85
37200;BME280;23096;50.892;16.746;2022-09-30T01:13:19;98559.81;;;8.33;72.92
37200;BME280;23096;50.892;16.746;2022-09-30T01:15:56;98563.58;;;8.36;73.02
37200;BME280;23096;50.892;16.746;2022-09-30T01:18:36;98558.77;;;8.39;73.08
37200;BME280;23096;50.892;16.746;2022-09-30T01:30:08;98556.88;;;8.46;72.99
37200;BME280;23096;50.892;16.746;2022-09-30T01:38:02;98553.06;;;8.44;73.18
37200;BME280;23096;50.892;16.746;2022-09-30T01:40:40;98552.14;;;8.47;73.18
37200;BME280;23096;50.892;16.746;2022-09-30T01:43:17;98554.85;;;8.42;73.02
37200;BME280;23096;50.892;16.746;2022-09-30T01:48:50;98560.05;;;8.39;73.10
37200;BME280;23096;50.892;16.746;2022-09-30T01:54:12;98563.12;;;8.37;73.23
37200;BME280;23096;50.892;16.746;2022-09-30T01:56:41;98559.67;;;8.38;73.25
37200;BME280;23096;50.892;16.746;2022-09-30T01:59:25;98564.81;;;8.38;73.19
37200;BME280;23096;50.892;16.746;2022-09-30T02:01:55;98558.20;;;8.31;73.08
37200;BME280;23096;50.892;16.746;2022-09-30T02:04:24;98563.84;;;8.29;73.10
37200;BME280;23096;50.892;16.746;2022-09-30T02:06:56;98555.45;;;8.23;73.14
37200;BME280;23096;50.892;16.746;2022-09-30T02:09:26;98555.04;;;8.22;73.25
37200;BME280;23096;50.892;16.746;2022-09-30T02:11:54;98557.61;;;8.22;73.18
37200;BME280;23096;50.892;16.746;2022-09-30T02:14:27;98551.23;;;8.21;73.28
37200;BME280;23096;50.892;16.746;2022-09-30T02:17:04;98550.36;;;8.22;73.37
37200;BME280;23096;50.892;16.746;2022-09-30T02:19:45;98552.88;;;8.23;73.37
37200;BME280;23096;50.892;16.746;2022-09-30T02:22:17;98554.12;;;8.25;73.43
37200;BME280;23096;50.892;16.746;2022-09-30T02:24:45;98560.95;;;8.24;73.30
37200;BME280;23096;50.892;16.746;2022-09-30T02:27:23;98560.53;;;8.25;73.42
37200;BME280;23096;50.892;16.746;2022-09-30T02:29:52;98560.58;;;8.23;73.40
37200;BME280;23096;50.892;16.746;2022-09-30T02:32:26;98556.73;;;8.23;73.40
37200;BME280;23096;50.892;16.746;2022-09-30T02:35:05;98558.84;;;8.24;73.39
37200;BME280;23096;50.892;16.746;2022-09-30T02:37:38;98564.92;;;8.21;73.31
37200;BME280;23096;50.892;16.746;2022-09-30T02:42:43;98566.94;;;8.12;73.35
37200;BME280;23096;50.892;16.746;2022-09-30T02:45:11;98572.52;;;8.11;73.37
37200;BME280;23096;50.892;16.746;2022-09-30T02:50:41;98572.73;;;8.05;73.47
37200;BME280;23096;50.892;16.746;2022-09-30T02:53:25;98580.02;;;8.04;73.37
37200;BME280;23096;50.892;16.746;2022-09-30T02:58:40;98573.25;;;7.88;73.28
37200;BME280;23096;50.892;16.746;2022-09-30T03:01:08;98580.16;;;7.86;73.47
37200;BME280;23096;50.892;16.746;2022-09-30T03:03:38;98582.59;;;7.91;73.63
37200;BME280;23096;50.892;16.746;2022-09-30T03:06:05;98590.58;;;7.95;73.62
37200;BME280;23096;50.892;16.746;2022-09-30T03:08:31;98586.78;;;7.93;73.59
37200;BME280;23096;50.892;16.746;2022-09-30T03:10:57;98594.06;;;7.92;73.61
37200;BME280;23096;50.892;16.746;2022-09-30T03:16:27;98602.42;;;7.99;73.72
37200;BME280;23096;50.892;16.746;2022-09-30T03:19:16;98600.27;;;8.00;73.67
37200;BME280;23096;50.892;16.746;2022-09-30T03:22:04;98598.19;;;7.98;73.66
37200;BME280;23096;50.892;16.746;2022-09-30T03:27:37;98599.40;;;7.99;73.76
37200;BME280;23096;50.892;16.746;2022-09-30T03:30:06;98598.98;;;8.00;73.74
37200;BME280;23096;50.892;16.746;2022-09-30T03:35:32;98599.77;;;8.02;73.76
37200;BME280;23096;50.892;16.746;2022-09-30T03:40:56;98607.21;;;7.96;73.71
37200;BME280;23096;50.892;16.746;2022-09-30T03:46:05;98614.55;;;7.94;73.83
37200;BME280;23096;50.892;16.746;2022-09-30T03:48:32;98617.52;;;7.95;73.89
37200;BME280;23096;50.892;16.746;2022-09-30T03:50:58;98622.98;;;7.97;73.89
37200;BME280;23096;50.892;16.746;2022-09-30T03:53:25;98625.67;;;7.94;73.82
37200;BME280;23096;50.892;16.746;2022-09-30T03:55:52;98628.16;;;7.96;73.99
37200;BME280;23096;50.892;16.746;2022-09-30T03:58:19;98628.07;;;7.99;73.99
37200;BME280;23096;50.892;16.746;2022-09-30T04:00:49;98622.94;;;7.99;73.98
37200;BME280;23096;50.892;16.746;2022-09-30T04:03:17;98624.18;;;8.00;73.97
37200;BME280;23096;50.892;16.746;2022-09-30T04:05:44;98628.61;;;7.95;73.71
37200;BME280;23096;50.892;16.746;2022-09-30T04:08:11;98630.22;;;7.84;73.66
37200;BME280;23096;50.892;16.746;2022-09-30T04:10:40;98629.97;;;7.79;73.75
37200;BME280;23096;50.892;16.746;2022-09-30T04:13:07;98624.84;;;7.79;73.92
37200;BME280;23096;50.892;16.746;2022-09-30T04:15:33;98625.20;;;7.81;74.01
37200;BME280;23096;50.892;16.746;2022-09-30T04:18:02;98624.22;;;7.85;74.05
37200;BME280;23096;50.892;16.746;2022-09-30T04:20:30;98621.70;;;7.84;73.92
37200;BME280;23096;50.892;16.746;2022-09-30T04:23:01;98617.89;;;7.82;73.98
37200;BME280;23096;50.892;16.746;2022-09-30T04:25:24;98621.73;;;7.82;73.98
37200;BME280;23096;50.892;16.746;2022-09-30T04:27:51;98619.17;;;7.82;74.01
37200;BME280;23096;50.892;16.746;2022-09-30T04:30:17;98612.31;;;7.83;74.11
37200;BME280;23096;50.892;16.746;2022-09-30T04:32:43;98615.69;;;7.85;74.20
37200;BME280;23096;50.892;16.746;2022-09-30T04:35:14;98619.38;;;7.90;74.26
37200;BME280;23096;50.892;16.746;2022-09-30T04:37:46;98621.37;;;7.95;74.32
37200;BME280;23096;50.892;16.746;2022-09-30T04:40:09;98625.95;;;7.98;74.32
37200;BME280;23096;50.892;16.746;2022-09-30T04:42:36;98630.88;;;8.04;74.36
37200;BME280;23096;50.892;16.746;2022-09-30T04:45:04;98635.48;;;8.08;74.40
37200;BME280;23096;50.892;16.746;2022-09-30T04:47:30;98643.00;;;8.14;74.47
37200;BME280;23096;50.892;16.746;2022-09-30T04:49:56;98645.86;;;8.18;74.46
37200;BME280;23096;50.892;16.746;2022-09-30T04:52:22;98652.11;;;8.23;74.45
37200;BME280;23096;50.892;16.746;2022-09-30T04:54:51;98656.83;;;8.23;74.37
37200;BME280;23096;50.892;16.746;2022-09-30T04:57:18;98658.06;;;8.25;74.39
37200;BME280;23096;50.892;16.746;2022-09-30T04:59:44;98658.06;;;8.25;74.35
37200;BME280;23096;50.892;16.746;2022-09-30T05:02:12;98657.61;;;8.25;74.41
37200;BME280;23096;50.892;16.746;2022-09-30T05:04:38;98663.53;;;8.28;74.47
37200;BME280;23096;50.892;16.746;2022-09-30T05:07:04;98666.88;;;8.30;74.49
37200;BME280;23096;50.892;16.746;2022-09-30T05:09:32;98668.53;;;8.32;74.50
37200;BME280;23096;50.892;16.746;2022-09-30T05:11:58;98680.46;;;8.33;74.40
37200;BME280;23096;50.892;16.746;2022-09-30T05:14:26;98679.62;;;8.33;74.48
37200;BME280;23096;50.892;16.746;2022-09-30T05:16:51;98679.55;;;8.36;74.49
37200;BME280;23096;50.892;16.746;2022-09-30T05:19:17;98678.64;;;8.37;74.52
37200;BME280;23096;50.892;16.746;2022-09-30T05:21:44;98679.97;;;8.35;74.45
37200;BME280;23096;50.892;16.746;2022-09-30T05:24:09;98686.84;;;8.35;74.46
37200;BME280;23096;50.892;16.746;2022-09-30T05:26:36;98690.69;;;8.35;74.49
37200;BME280;23096;50.892;16.746;2022-09-30T05:29:02;98681.83;;;8.30;74.45
37200;BME280;23096;50.892;16.746;2022-09-30T05:31:27;98686.17;;;8.28;74.41
37200;BME280;23096;50.892;16.746;2022-09-30T05:33:53;98687.50;;;8.26;74.50
37200;BME280;23096;50.892;16.746;2022-09-30T05:36:19;98693.92;;;8.26;74.56
37200;BME280;23096;50.892;16.746;2022-09-30T05:38:50;98691.80;;;8.26;74.46
37200;BME280;23096;50.892;16.746;2022-09-30T05:41:16;98697.09;;;8.21;74.47
37200;BME280;23096;50.892;16.746;2022-09-30T05:43:44;98706.13;;;8.20;74.49
37200;BME280;23096;50.892;16.746;2022-09-30T05:46:12;98701.53;;;8.16;74.49
37200;BME280;23096;50.892;16.746;2022-09-30T05:48:39;98704.97;;;8.15;74.59
37200;BME280;23096;50.892;16.746;2022-09-30T05:51:05;98698.97;;;8.16;74.69
37200;BME280;23096;50.892;16.746;2022-09-30T05:53:33;98709.94;;;8.21;74.71
37200;BME280;23096;50.892;16.746;2022-09-30T05:55:59;98706.46;;;8.22;74.71
37200;BME280;23096;50.892;16.746;2022-09-30T05:58:25;98708.65;;;8.21;74.66
37200;BME280;23096;50.892;16.746;2022-09-30T06:00:51;98712.00;;;8.23;74.73
37200;BME280;23096;50.892;16.746;2022-09-30T06:03:17;98715.45;;;8.22;74.71
37200;BME280;23096;50.892;16.746;2022-09-30T06:05:44;98716.27;;;8.23;74.78
37200;BME280;23096;50.892;16.746;2022-09-30T06:08:10;98723.06;;;8.25;74.74
37200;BME280;23096;50.892;16.746;2022-09-30T06:10:39;98726.50;;;8.24;74.70
37200;BME280;23096;50.892;16.746;2022-09-30T06:13:05;98720.04;;;8.26;74.80
37200;BME280;23096;50.892;16.746;2022-09-30T06:15:31;98723.10;;;8.24;74.73
37200;BME280;23096;50.892;16.746;2022-09-30T06:17:57;98724.05;;;8.21;74.78
37200;BME280;23096;50.892;16.746;2022-09-30T06:20:23;98729.06;;;8.24;74.86
37200;BME280;23096;50.892;16.746;2022-09-30T06:22:49;98733.63;;;8.30;74.98
37200;BME280;23096;50.892;16.746;2022-09-30T06:25:15;98723.77;;;8.31;74.93
37200;BME280;23096;50.892;16.746;2022-09-30T06:27:46;98726.67;;;8.33;74.96
37200;BME280;23096;50.892;16.746;2022-09-30T06:30:12;98741.16;;;8.36;74.93
37200;BME280;23096;50.892;16.746;2022-09-30T06:32:38;98736.06;;;8.34;74.86
37200;BME280;23096;50.892;16.746;2022-09-30T06:35:04;98740.83;;;8.32;74.87
37200;BME280;23096;50.892;16.746;2022-09-30T06:37:30;98750.14;;;8.36;74.98
37200;BME280;23096;50.892;16.746;2022-09-30T06:39:56;98744.47;;;8.39;75.02
37200;BME280;23096;50.892;16.746;2022-09-30T06:42:22;98749.09;;;8.43;75.06
37200;BME280;23096;50.892;16.746;2022-09-30T06:44:49;98750.72;;;8.46;75.01
37200;BME280;23096;50.892;16.746;2022-09-30T06:47:16;98754.90;;;8.48;75.06
37200;BME280;23096;50.892;16.746;2022-09-30T06:49:43;98761.32;;;8.48;74.99
37200;BME280;23096;50.892;16.746;2022-09-30T06:52:09;98761.86;;;8.44;74.92
37200;BME280;23096;50.892;16.746;2022-09-30T06:54:38;98766.16;;;8.44;75.00
37200;BME280;23096;50.892;16.746;2022-09-30T06:57:14;98776.34;;;8.47;75.10
37200;BME280;23096;50.892;16.746;2022-09-30T06:59:41;98768.60;;;8.49;75.13
37200;BME280;23096;50.892;16.746;2022-09-30T07:02:09;98768.44;;;8.53;75.21
37200;BME280;23096;50.892;16.746;2022-09-30T07:04:36;98780.78;;;8.55;75.18
37200;BME280;23096;50.892;16.746;2022-09-30T07:07:02;98782.81;;;8.59;75.23
37200;BME280;23096;50.892;16.746;2022-09-30T07:09:27;98780.61;;;8.61;75.24
37200;BME280;23096;50.892;16.746;2022-09-30T07:11:53;98785.25;;;8.63;75.26
37200;BME280;23096;50.892;16.746;2022-09-30T07:14:19;98788.16;;;8.66;75.28
37200;BME280;23096;50.892;16.746;2022-09-30T07:16:47;98792.80;;;8.68;75.31
37200;BME280;23096;50.892;16.746;2022-09-30T07:19:14;98790.98;;;8.72;75.36
37200;BME280;23096;50.892;16.746;2022-09-30T07:21:42;98792.67;;;8.73;75.32
37200;BME280;23096;50.892;16.746;2022-09-30T07:24:07;98793.45;;;8.75;75.34
37200;BME280;23096;50.892;16.746;2022-09-30T07:26:33;98795.57;;;8.75;75.34
37200;BME280;23096;50.892;16.746;2022-09-30T07:28:59;98797.64;;;8.77;75.39
37200;BME280;23096;50.892;16.746;2022-09-30T07:31:25;98806.59;;;8.79;75.41
37200;BME280;23096;50.892;16.746;2022-09-30T07:33:51;98806.09;;;8.81;75.44
37200;BME280;23096;50.892;16.746;2022-09-30T07:36:21;98815.83;;;8.85;75.49
37200;BME280;23096;50.892;16.746;2022-09-30T07:38:50;98817.07;;;8.86;75.51
37200;BME280;23096;50.892;16.746;2022-09-30T07:41:17;98819.59;;;8.88;75.51
37200;BME280;23096;50.892;16.746;2022-09-30T07:43:46;98819.51;;;8.91;75.52
37200;BME280;23096;50.892;16.746;2022-09-30T07:46:19;98815.61;;;8.92;75.49
37200;BME280;23096;50.892;16.746;2022-09-30T07:48:52;98823.27;;;8.94;75.55
37200;BME280;23096;50.892;16.746;2022-09-30T07:51:22;98828.30;;;8.97;75.64
37200;BME280;23096;50.892;16.746;2022-09-30T07:53:50;98824.84;;;8.98;75.63
37200;BME280;23096;50.892;16.746;2022-09-30T07:56:18;98817.88;;;9.01;75.70
37200;BME280;23096;50.892;16.746;2022-09-30T07:58:45;98823.02;;;9.01;75.66
37200;BME280;23096;50.892;16.746;2022-09-30T08:01:11;98825.18;;;9.00;75.71
37200;BME280;23096;50.892;16.746;2022-09-30T08:03:38;98825.09;;;9.04;75.80
37200;BME280;23096;50.892;16.746;2022-09-30T08:06:11;98827.12;;;9.07;75.84
37200;BME280;23096;50.892;16.746;2022-09-30T08:08:34;98822.77;;;9.09;75.90
37200;BME280;23096;50.892;16.746;2022-09-30T08:11:01;98831.22;;;9.13;75.89
37200;BME280;23096;50.892;16.746;2022-09-30T08:13:27;98832.45;;;9.14;75.94
37200;BME280;23096;50.892;16.746;2022-09-30T08:15:53;98835.77;;;9.18;75.99
37200;BME280;23096;50.892;16.746;2022-09-30T08:18:19;98840.00;;;9.19;76.01
37200;BME280;23096;50.892;16.746;2022-09-30T08:20:47;98844.55;;;9.24;76.08
37200;BME280;23096;50.892;16.746;2022-09-30T08:23:13;98850.44;;;9.28;76.12
37200;BME280;23096;50.892;16.746;2022-09-30T08:25:39;98855.44;;;9.32;76.18
37200;BME280;23096;50.892;16.746;2022-09-30T08:28:05;98853.25;;;9.33;76.14
37200;BME280;23096;50.892;16.746;2022-09-30T08:30:33;98857.84;;;9.37;76.20
37200;BME280;23096;50.892;16.746;2022-09-30T08:32:59;98854.68;;;9.42;76.25
37200;BME280;23096;50.892;16.746;2022-09-30T08:35:25;98856.20;;;9.48;76.33
37200;BME280;23096;50.892;16.746;2022-09-30T08:37:51;98859.83;;;9.55;76.35
37200;BME280;23096;50.892;16.746;2022-09-30T08:48:42;98869.61;;;9.83;76.51
37200;BME280;23096;50.892;16.746;2022-09-30T08:51:22;98868.98;;;9.88;76.50
37200;BME280;23096;50.892;16.746;2022-09-30T08:53:51;98871.36;;;9.94;76.53
37200;BME280;23096;50.892;16.746;2022-09-30T08:56:20;98868.96;;;10.01;76.56
37200;BME280;23096;50.892;16.746;2022-09-30T08:58:48;98872.22;;;10.06;76.57
37200;BME280;23096;50.892;16.746;2022-09-30T09:01:22;98872.49;;;10.10;76.60
37200;BME280;23096;50.892;16.746;2022-09-30T09:03:54;98878.75;;;10.15;76.57
37200;BME280;23096;50.892;16.746;2022-09-30T09:06:40;98880.34;;;10.19;76.61
37200;BME280;23096;50.892;16.746;2022-09-30T09:12:33;98881.66;;;10.29;76.63
37200;BME280;23096;50.892;16.746;2022-09-30T09:15:27;98879.23;;;10.38;76.68
37200;BME280;23096;50.892;16.746;2022-09-30T09:18:28;98882.17;;;10.41;76.59
37200;BME280;23096;50.892;16.746;2022-09-30T09:21:13;98875.59;;;10.44;76.61
37200;BME280;23096;50.892;16.746;2022-09-30T09:23:34;98881.77;;;10.51;76.65
37200;BME280;23096;50.892;16.746;2022-09-30T09:26:00;98884.67;;;10.54;76.58
37200;BME280;23096;50.892;16.746;2022-09-30T09:31:30;98883.84;;;10.53;76.52
37200;BME280;23096;50.892;16.746;2022-09-30T09:33:58;98879.78;;;10.58;76.62
37200;BME280;23096;50.892;16.746;2022-09-30T09:42:13;98887.63;;;10.67;76.59
37200;BME280;23096;50.892;16.746;2022-09-30T09:47:23;98892.26;;;10.81;76.60
37200;BME280;23096;50.892;16.746;2022-09-30T09:49:56;98892.12;;;10.84;76.56
37200;BME280;23096;50.892;16.746;2022-09-30T09:55:00;98896.19;;;10.89;76.53
37200;BME280;23096;50.892;16.746;2022-09-30T09:57:26;98901.64;;;10.93;76.54
37200;BME280;23096;50.892;16.746;2022-09-30T10:00:02;98897.63;;;10.97;76.52
37200;BME280;23096;50.892;16.746;2022-09-30T10:02:58;98909.95;;;11.00;76.50
37200;BME280;23096;50.892;16.746;2022-09-30T10:05:26;98908.05;;;11.05;76.53
37200;BME280;23096;50.892;16.746;2022-09-30T10:08:28;98902.72;;;11.10;76.53
37200;BME280;23096;50.892;16.746;2022-09-30T10:10:49;98901.63;;;11.16;76.50
37200;BME280;23096;50.892;16.746;2022-09-30T10:13:26;98900.30;;;11.17;76.51
37200;BME280;23096;50.892;16.746;2022-09-30T10:15:58;98898.38;;;11.22;76.49
37200;BME280;23096;50.892;16.746;2022-09-30T10:18:26;98889.20;;;11.25;76.53
37200;BME280;23096;50.892;16.746;2022-09-30T10:21:02;98895.42;;;11.31;76.58
37200;BME280;23096;50.892;16.746;2022-09-30T10:23:45;98897.37;;;11.37;76.57
37200;BME280;23096;50.892;16.746;2022-09-30T10:28:50;98895.19;;;11.48;76.50
37200;BME280;23096;50.892;16.746;2022-09-30T10:31:29;98900.20;;;11.51;76.46
37200;BME280;23096;50.892;16.746;2022-09-30T10:36:54;98900.67;;;11.61;76.50
37200;BME280;23096;50.892;16.746;2022-09-30T10:39:22;98907.72;;;11.67;76.46
37200;BME280;23096;50.892;16.746;2022-09-30T10:41:51;98908.03;;;11.70;76.43
37200;BME280;23096;50.892;16.746;2022-09-30T10:44:26;98911.20;;;11.77;76.44
37200;BME280;23096;50.892;16.746;2022-09-30T10:46:52;98904.48;;;11.83;76.41
37200;BME280;23096;50.892;16.746;2022-09-30T10:51:57;98906.58;;;11.95;76.42
37200;BME280;23096;50.892;16.746;2022-09-30T10:57:13;98904.23;;;12.10;76.41
37200;BME280;23096;50.892;16.746;2022-09-30T10:59:40;98900.73;;;12.21;76.44
37200;BME280;23096;50.892;16.746;2022-09-30T11:05:01;98899.44;;;12.40;76.36
37200;BME280;23096;50.892;16.746;2022-09-30T11:12:50;98899.57;;;12.66;76.22
37200;BME280;23096;50.892;16.746;2022-09-30T11:15:23;98896.49;;;12.77;76.21
37200;BME280;23096;50.892;16.746;2022-09-30T11:17:56;98897.82;;;12.85;76.11
37200;BME280;23096;50.892;16.746;2022-09-30T11:23:00;98900.59;;;13.00;75.89
37200;BME280;23096;50.892;16.746;2022-09-30T11:34:09;98898.16;;;13.33;75.68
37200;BME280;23096;50.892;16.746;2022-09-30T11:36:53;98907.00;;;13.55;75.68
37200;BME280;23096;50.892;16.746;2022-09-30T11:42:09;98909.81;;;13.77;75.21
37200;BME280;23096;50.892;16.746;2022-09-30T11:44:45;98913.63;;;13.78;74.97
37200;BME280;23096;50.892;16.746;2022-09-30T11:55:42;98916.66;;;13.87;74.43
37200;BME280;23096;50.892;16.746;2022-09-30T11:58:10;98917.19;;;13.85;74.21
37200;BME280;23096;50.892;16.746;2022-09-30T12:00:41;98915.00;;;13.86;74.05
37200;BME280;23096;50.892;16.746;2022-09-30T12:03:17;98913.38;;;13.83;73.91
37200;BME280;23096;50.892;16.746;2022-09-30T12:05:57;98911.72;;;13.82;73.85
37200;BME280;23096;50.892;16.746;2022-09-30T12:08:33;98924.81;;;13.79;73.55
37200;BME280;23096;50.892;16.746;2022-09-30T12:11:09;98927.11;;;13.76;73.44
37200;BME280;23096;50.892;16.746;2022-09-30T12:13:47;98923.98;;;13.78;73.32
37200;BME280;23096;50.892;16.746;2022-09-30T12:16:20;98928.63;;;13.80;73.19
37200;BME280;23096;50.892;16.746;2022-09-30T12:24:05;98928.23;;;13.88;72.95
37200;BME280;23096;50.892;16.746;2022-09-30T12:26:31;98933.73;;;13.91;72.81
37200;BME280;23096;50.892;16.746;2022-09-30T12:32:19;98934.02;;;13.93;72.65
37200;BME280;23096;50.892;16.746;2022-09-30T12:48:59;98935.92;;;14.41;72.35
37200;BME280;23096;50.892;16.746;2022-09-30T12:51:33;98929.64;;;14.45;72.21
37200;BME280;23096;50.892;16.746;2022-09-30T12:54:01;98927.30;;;14.49;72.09
37200;BME280;23096;50.892;16.746;2022-09-30T12:56:35;98931.18;;;14.49;71.91
37200;BME280;23096;50.892;16.746;2022-09-30T12:59:02;98924.63;;;14.50;71.83
37200;BME280;23096;50.892;16.746;2022-09-30T13:01:34;98927.50;;;14.53;71.74
37200;BME280;23096;50.892;16.746;2022-09-30T13:09:17;98934.13;;;14.50;71.10
37200;BME280;23096;50.892;16.746;2022-09-30T13:11:45;98935.62;;;14.47;70.84
37200;BME280;23096;50.892;16.746;2022-09-30T13:19:45;98930.73;;;14.41;70.47
37200;BME280;23096;50.892;16.746;2022-09-30T13:27:34;98928.69;;;14.38;70.08
37200;BME280;23096;50.892;16.746;2022-09-30T13:30:29;98925.27;;;14.38;69.94
37200;BME280;23096;50.892;16.746;2022-09-30T13:32:35;98925.02;;;14.34;69.71
37200;BME280;23096;50.892;16.746;2022-09-30T13:35:14;98913.91;;;14.32;69.62
37200;BME280;23096;50.892;16.746;2022-09-30T13:38:07;98910.20;;;14.29;69.39
37200;BME280;23096;50.892;16.746;2022-09-30T13:40:34;98917.52;;;14.29;69.36
37200;BME280;23096;50.892;16.746;2022-09-30T13:43:03;98923.50;;;14.38;69.34
37200;BME280;23096;50.892;16.746;2022-09-30T13:45:30;98912.64;;;14.48;69.39
37200;BME280;23096;50.892;16.746;2022-09-30T13:48:15;98918.43;;;14.53;69.09
37200;BME280;23096;50.892;16.746;2022-09-30T13:50:46;98916.59;;;14.55;68.94
37200;BME280;23096;50.892;16.746;2022-09-30T13:55:55;98926.05;;;14.56;68.66
37200;BME280;23096;50.892;16.746;2022-09-30T14:09:35;98920.53;;;14.71;68.27
37200;BME280;23096;50.892;16.746;2022-09-30T14:12:18;98923.20;;;14.69;67.98
37200;BME280;23096;50.892;16.746;2022-09-30T14:23:17;98925.72;;;14.71;67.70
37200;BME280;23096;50.892;16.746;2022-09-30T14:25:47;98929.06;;;14.73;67.44
37200;BME280;23096;50.892;16.746;2022-09-30T14:28:24;98931.93;;;14.75;67.48
37200;BME280;23096;50.892;16.746;2022-09-30T14:31:10;98938.77;;;14.85;67.46
37200;BME280;23096;50.892;16.746;2022-09-30T14:33:37;98932.77;;;14.92;67.33
37200;BME280;23096;50.892;16.746;2022-09-30T14:36:09;98922.44;;;14.99;67.17
37200;BME280;23096;50.892;16.746;2022-09-30T14:38:37;98932.38;;;15.00;67.04
37200;BME280;23096;50.892;16.746;2022-09-30T14:41:05;98929.59;;;15.03;66.97
37200;BME280;23096;50.892;16.746;2022-09-30T14:43:39;98938.39;;;15.00;66.71
37200;BME280;23096;50.892;16.746;2022-09-30T14:46:06;98949.00;;;14.95;66.58
37200;BME280;23096;50.892;16.746;2022-09-30T14:48:38;98955.09;;;14.87;66.43
37200;BME280;23096;50.892;16.746;2022-09-30T14:51:11;98949.15;;;14.85;66.62
37200;BME280;23096;50.892;16.746;2022-09-30T14:53:37;98940.78;;;14.80;66.35
37200;BME280;23096;50.892;16.746;2022-09-30T14:56:26;98943.24;;;14.74;66.35
37200;BME280;23096;50.892;16.746;2022-09-30T14:58:56;98945.16;;;14.71;66.49
37200;BME280;23096;50.892;16.746;2022-09-30T15:01:24;98946.66;;;14.75;66.53
37200;BME280;23096;50.892;16.746;2022-09-30T15:06:34;98935.07;;;14.73;66.59
37200;BME280;23096;50.892;16.746;2022-09-30T15:11:29;98930.83;;;14.72;66.45
37200;BME280;23096;50.892;16.746;2022-09-30T15:14:18;98932.77;;;14.60;66.33
37200;BME280;23096;50.892;16.746;2022-09-30T15:16:29;98934.39;;;14.45;66.15
37200;BME280;23096;50.892;16.746;2022-09-30T15:18:55;98939.63;;;14.19;65.98
37200;BME280;23096;50.892;16.746;2022-09-30T15:21:22;98945.31;;;13.92;65.93
37200;BME280;23096;50.892;16.746;2022-09-30T15:23:50;98946.12;;;13.67;65.96
37200;BME280;23096;50.892;16.746;2022-09-30T15:26:18;98954.94;;;13.45;66.16
37200;BME280;23096;50.892;16.746;2022-09-30T15:28:47;98951.84;;;13.28;66.20
37200;BME280;23096;50.892;16.746;2022-09-30T15:31:17;98952.25;;;13.10;66.26
37200;BME280;23096;50.892;16.746;2022-09-30T15:33:46;98960.88;;;12.92;66.27
37200;BME280;23096;50.892;16.746;2022-09-30T15:36:17;98961.84;;;12.70;66.36
37200;BME280;23096;50.892;16.746;2022-09-30T15:38:45;98963.13;;;12.51;66.56
37200;BME280;23096;50.892;16.746;2022-09-30T15:41:12;98960.73;;;12.46;66.82
37200;BME280;23096;50.892;16.746;2022-09-30T15:43:40;98960.62;;;12.39;66.87
37200;BME280;23096;50.892;16.746;2022-09-30T15:46:21;98955.73;;;12.33;66.97
37200;BME280;23096;50.892;16.746;2022-09-30T15:48:53;98953.49;;;12.25;67.09
37200;BME280;23096;50.892;16.746;2022-09-30T15:51:27;98953.67;;;12.21;67.20
37200;BME280;23096;50.892;16.746;2022-09-30T15:54:44;98949.56;;;12.17;67.32
37200;BME280;23096;50.892;16.746;2022-09-30T15:56:35;98953.61;;;12.12;67.44
37200;BME280;23096;50.892;16.746;2022-09-30T15:59:03;98950.72;;;12.10;67.53
37200;BME280;23096;50.892;16.746;2022-09-30T16:01:38;98956.01;;;12.06;67.62
37200;BME280;23096;50.892;16.746;2022-09-30T16:04:09;98958.19;;;12.05;67.70
37200;BME280;23096;50.892;16.746;2022-09-30T16:14:41;98983.52;;;11.97;68.01
37200;BME280;23096;50.892;16.746;2022-09-30T16:17:18;98985.27;;;11.97;68.06